Lisnaskea, United Kingdom
Current Conditions -  °F | °C
As of 8:30 AM on Wednesday 28 Jan 2015 (Local Time) from EISG Reporting Station
Few Clouds Few Clouds  
Wind Chill: 29°   Ceiling: Unl
Heat Index: 41°   Visibility: 5mi
Dew Point: 32°   Wind: 35mph
Humidity: 70%   Direction: 280°W
Pressure: 29.56"   Gusts: 51mph
Location:  54.25°N, 7.45°W
Report Text: EISG 280830Z 28030G44KT 8000 FEW012 05/00 Q1001
Loading
Personal Weather Stations






























Interactive Weather Map New forecast layout! Learn more

10-Day Weather Forecast

Advertisements
Track Severe Weather on mobile